sensor_id;sensor_type;location;lat;lon;timestamp;P1;durP1;ratioP1;P2;durP2;ratioP2
24721;SDS011;12826;52.368;5.258;2022-09-13T00:01:44;5.60;;;4.97;;
24721;SDS011;12826;52.368;5.258;2022-09-13T00:04:47;7.50;;;5.68;;
24721;SDS011;12826;52.368;5.258;2022-09-13T00:07:48;6.13;;;5.40;;
24721;SDS011;12826;52.368;5.258;2022-09-13T00:13:59;9.00;;;6.20;;
24721;SDS011;12826;52.368;5.258;2022-09-13T00:17:03;7.13;;;6.43;;
24721;SDS011;12826;52.368;5.258;2022-09-13T00:23:08;6.78;;;6.07;;
24721;SDS011;12826;52.368;5.258;2022-09-13T00:26:11;7.32;;;6.05;;
24721;SDS011;12826;52.368;5.258;2022-09-13T00:29:23;8.40;;;6.03;;
24721;SDS011;12826;52.368;5.258;2022-09-13T00:32:23;9.43;;;6.72;;
24721;SDS011;12826;52.368;5.258;2022-09-13T00:35:24;9.02;;;6.50;;
24721;SDS011;12826;52.368;5.258;2022-09-13T00:38:24;9.43;;;6.20;;
24721;SDS011;12826;52.368;5.258;2022-09-13T00:41:25;8.10;;;7.22;;
24721;SDS011;12826;52.368;5.258;2022-09-13T00:47:52;11.43;;;8.23;;
24721;SDS011;12826;52.368;5.258;2022-09-13T00:50:58;12.48;;;9.30;;
24721;SDS011;12826;52.368;5.258;2022-09-13T00:53:58;15.25;;;11.27;;
24721;SDS011;12826;52.368;5.258;2022-09-13T00:57:00;15.48;;;11.32;;
24721;SDS011;12826;52.368;5.258;2022-09-13T01:00:08;15.18;;;11.48;;
24721;SDS011;12826;52.368;5.258;2022-09-13T01:03:12;16.25;;;11.82;;
24721;SDS011;12826;52.368;5.258;2022-09-13T01:06:21;16.65;;;11.95;;
24721;SDS011;12826;52.368;5.258;2022-09-13T01:09:32;17.50;;;12.40;;
24721;SDS011;12826;52.368;5.258;2022-09-13T01:15:54;18.33;;;11.90;;
24721;SDS011;12826;52.368;5.258;2022-09-13T01:18:55;15.93;;;11.95;;
24721;SDS011;12826;52.368;5.258;2022-09-13T01:31:24;15.02;;;10.77;;
24721;SDS011;12826;52.368;5.258;2022-09-13T01:44:05;14.35;;;10.80;;
24721;SDS011;12826;52.368;5.258;2022-09-13T01:47:32;13.60;;;10.57;;
24721;SDS011;12826;52.368;5.258;2022-09-13T02:00:45;13.50;;;9.35;;
24721;SDS011;12826;52.368;5.258;2022-09-13T02:04:00;14.13;;;9.23;;
24721;SDS011;12826;52.368;5.258;2022-09-13T02:07:18;11.85;;;8.98;;
24721;SDS011;12826;52.368;5.258;2022-09-13T02:10:22;12.07;;;9.07;;
24721;SDS011;12826;52.368;5.258;2022-09-13T02:14:09;13.07;;;8.63;;
24721;SDS011;12826;52.368;5.258;2022-09-13T02:17:17;13.80;;;7.88;;
24721;SDS011;12826;52.368;5.258;2022-09-13T02:20:40;9.80;;;8.50;;
24721;SDS011;12826;52.368;5.258;2022-09-13T02:23:44;13.20;;;8.30;;
24721;SDS011;12826;52.368;5.258;2022-09-13T02:26:49;11.85;;;7.72;;
24721;SDS011;12826;52.368;5.258;2022-09-13T02:29:52;10.38;;;7.40;;
24721;SDS011;12826;52.368;5.258;2022-09-13T02:36:04;12.70;;;7.65;;
24721;SDS011;12826;52.368;5.258;2022-09-13T02:39:13;9.90;;;7.25;;
24721;SDS011;12826;52.368;5.258;2022-09-13T02:45:18;9.75;;;6.43;;
24721;SDS011;12826;52.368;5.258;2022-09-13T02:51:48;9.85;;;8.15;;
24721;SDS011;12826;52.368;5.258;2022-09-13T02:58:27;9.70;;;8.10;;
24721;SDS011;12826;52.368;5.258;2022-09-13T03:01:30;11.95;;;8.50;;
24721;SDS011;12826;52.368;5.258;2022-09-13T03:04:32;10.70;;;8.70;;
24721;SDS011;12826;52.368;5.258;2022-09-13T03:07:39;11.75;;;9.05;;
24721;SDS011;12826;52.368;5.258;2022-09-13T03:17:20;13.45;;;9.40;;
24721;SDS011;12826;52.368;5.258;2022-09-13T03:36:44;13.48;;;9.77;;
24721;SDS011;12826;52.368;5.258;2022-09-13T03:39:55;12.85;;;9.85;;
24721;SDS011;12826;52.368;5.258;2022-09-13T03:43:10;14.40;;;11.20;;
24721;SDS011;12826;52.368;5.258;2022-09-13T03:46:27;16.27;;;11.90;;
24721;SDS011;12826;52.368;5.258;2022-09-13T03:49:41;16.63;;;12.30;;
24721;SDS011;12826;52.368;5.258;2022-09-13T03:55:49;17.23;;;11.63;;
24721;SDS011;12826;52.368;5.258;2022-09-13T03:58:49;18.23;;;12.85;;
24721;SDS011;12826;52.368;5.258;2022-09-13T04:04:53;18.75;;;13.18;;
24721;SDS011;12826;52.368;5.258;2022-09-13T04:07:54;18.27;;;13.32;;
24721;SDS011;12826;52.368;5.258;2022-09-13T04:13:59;19.42;;;14.30;;
24721;SDS011;12826;52.368;5.258;2022-09-13T04:16:59;20.55;;;13.00;;
24721;SDS011;12826;52.368;5.258;2022-09-13T04:20:00;19.02;;;12.85;;
24721;SDS011;12826;52.368;5.258;2022-09-13T04:23:01;18.00;;;12.77;;
24721;SDS011;12826;52.368;5.258;2022-09-13T04:32:22;18.38;;;13.55;;
24721;SDS011;12826;52.368;5.258;2022-09-13T04:35:22;18.02;;;13.57;;
24721;SDS011;12826;52.368;5.258;2022-09-13T04:38:27;18.45;;;13.70;;
24721;SDS011;12826;52.368;5.258;2022-09-13T04:41:28;18.02;;;13.00;;
24721;SDS011;12826;52.368;5.258;2022-09-13T04:44:33;17.80;;;12.88;;
24721;SDS011;12826;52.368;5.258;2022-09-13T04:47:36;18.40;;;13.93;;
24721;SDS011;12826;52.368;5.258;2022-09-13T04:50:41;19.08;;;14.05;;
24721;SDS011;12826;52.368;5.258;2022-09-13T04:53:42;21.55;;;14.88;;
24721;SDS011;12826;52.368;5.258;2022-09-13T04:59:55;21.75;;;14.13;;
24721;SDS011;12826;52.368;5.258;2022-09-13T05:03:02;19.95;;;14.90;;
24721;SDS011;12826;52.368;5.258;2022-09-13T05:06:06;17.83;;;13.65;;
24721;SDS011;12826;52.368;5.258;2022-09-13T05:09:12;17.70;;;13.57;;
24721;SDS011;12826;52.368;5.258;2022-09-13T05:12:13;18.85;;;14.32;;
24721;SDS011;12826;52.368;5.258;2022-09-13T05:15:13;22.02;;;15.32;;
24721;SDS011;12826;52.368;5.258;2022-09-13T05:18:14;24.85;;;16.13;;
24721;SDS011;12826;52.368;5.258;2022-09-13T05:21:14;22.27;;;16.42;;
24721;SDS011;12826;52.368;5.258;2022-09-13T05:24:14;23.80;;;16.75;;
24721;SDS011;12826;52.368;5.258;2022-09-13T05:27:15;28.02;;;18.55;;
24721;SDS011;12826;52.368;5.258;2022-09-13T05:30:15;32.78;;;20.65;;
24721;SDS011;12826;52.368;5.258;2022-09-13T05:33:15;24.33;;;19.13;;
24721;SDS011;12826;52.368;5.258;2022-09-13T05:36:16;28.75;;;19.80;;
24721;SDS011;12826;52.368;5.258;2022-09-13T05:39:16;28.05;;;19.00;;
24721;SDS011;12826;52.368;5.258;2022-09-13T05:42:17;30.67;;;20.38;;
24721;SDS011;12826;52.368;5.258;2022-09-13T05:45:17;24.63;;;17.58;;
24721;SDS011;12826;52.368;5.258;2022-09-13T05:48:17;27.67;;;19.38;;
24721;SDS011;12826;52.368;5.258;2022-09-13T05:51:18;29.38;;;19.80;;
24721;SDS011;12826;52.368;5.258;2022-09-13T05:54:20;31.50;;;20.40;;
24721;SDS011;12826;52.368;5.258;2022-09-13T05:57:20;31.42;;;19.55;;
24721;SDS011;12826;52.368;5.258;2022-09-13T06:00:20;26.67;;;18.92;;
24721;SDS011;12826;52.368;5.258;2022-09-13T06:03:21;27.98;;;18.35;;
24721;SDS011;12826;52.368;5.258;2022-09-13T06:06:22;26.55;;;17.83;;
24721;SDS011;12826;52.368;5.258;2022-09-13T06:09:23;23.38;;;17.17;;
24721;SDS011;12826;52.368;5.258;2022-09-13T06:12:23;25.30;;;15.88;;
24721;SDS011;12826;52.368;5.258;2022-09-13T06:15:23;23.52;;;14.85;;
24721;SDS011;12826;52.368;5.258;2022-09-13T06:18:24;18.63;;;11.82;;
24721;SDS011;12826;52.368;5.258;2022-09-13T06:21:25;13.38;;;8.50;;
24721;SDS011;12826;52.368;5.258;2022-09-13T06:24:25;10.52;;;6.10;;
24721;SDS011;12826;52.368;5.258;2022-09-13T06:27:25;9.02;;;4.75;;
24721;SDS011;12826;52.368;5.258;2022-09-13T06:30:26;11.02;;;4.03;;
24721;SDS011;12826;52.368;5.258;2022-09-13T06:33:26;11.88;;;3.47;;
24721;SDS011;12826;52.368;5.258;2022-09-13T06:36:26;6.60;;;2.53;;
24721;SDS011;12826;52.368;5.258;2022-09-13T06:39:27;7.28;;;2.47;;
24721;SDS011;12826;52.368;5.258;2022-09-13T06:42:28;3.88;;;2.28;;
24721;SDS011;12826;52.368;5.258;2022-09-13T06:45:28;6.00;;;2.13;;
24721;SDS011;12826;52.368;5.258;2022-09-13T06:48:29;4.70;;;1.42;;
24721;SDS011;12826;52.368;5.258;2022-09-13T06:51:30;4.55;;;1.33;;
24721;SDS011;12826;52.368;5.258;2022-09-13T06:54:31;5.22;;;1.30;;
24721;SDS011;12826;52.368;5.258;2022-09-13T06:57:33;6.68;;;1.63;;
24721;SDS011;12826;52.368;5.258;2022-09-13T07:00:33;5.35;;;1.45;;
24721;SDS011;12826;52.368;5.258;2022-09-13T07:03:33;13.73;;;1.77;;
24721;SDS011;12826;52.368;5.258;2022-09-13T07:06:35;2.42;;;1.08;;
24721;SDS011;12826;52.368;5.258;2022-09-13T07:09:39;7.93;;;1.50;;
24721;SDS011;12826;52.368;5.258;2022-09-13T07:12:41;3.28;;;1.33;;
24721;SDS011;12826;52.368;5.258;2022-09-13T07:15:41;5.88;;;1.73;;
24721;SDS011;12826;52.368;5.258;2022-09-13T07:18:41;6.25;;;1.10;;
24721;SDS011;12826;52.368;5.258;2022-09-13T07:21:43;3.70;;;1.00;;
24721;SDS011;12826;52.368;5.258;2022-09-13T07:27:49;2.67;;;0.95;;
24721;SDS011;12826;52.368;5.258;2022-09-13T07:51:35;5.07;;;0.85;;
24721;SDS011;12826;52.368;5.258;2022-09-13T07:55:10;4.85;;;1.00;;
24721;SDS011;12826;52.368;5.258;2022-09-13T08:31:34;6.93;;;1.85;;
24721;SDS011;12826;52.368;5.258;2022-09-13T08:38:20;1.55;;;0.60;;
24721;SDS011;12826;52.368;5.258;2022-09-13T08:55:30;3.40;;;0.85;;
24721;SDS011;12826;52.368;5.258;2022-09-13T09:20:54;5.65;;;1.30;;
24721;SDS011;12826;52.368;5.258;2022-09-13T09:45:39;4.82;;;1.00;;
24721;SDS011;12826;52.368;5.258;2022-09-13T09:49:16;2.80;;;1.13;;
24721;SDS011;12826;52.368;5.258;2022-09-13T10:06:40;5.07;;;0.90;;
24721;SDS011;12826;52.368;5.258;2022-09-13T10:14:04;2.45;;;1.00;;
24721;SDS011;12826;52.368;5.258;2022-09-13T10:37:58;3.47;;;0.90;;
24721;SDS011;12826;52.368;5.258;2022-09-13T10:45:15;4.22;;;1.20;;
24721;SDS011;12826;52.368;5.258;2022-09-13T10:48:42;3.97;;;1.00;;
24721;SDS011;12826;52.368;5.258;2022-09-13T10:52:00;4.30;;;1.10;;
24721;SDS011;12826;52.368;5.258;2022-09-13T10:58:17;3.50;;;1.00;;
24721;SDS011;12826;52.368;5.258;2022-09-13T11:01:43;5.28;;;1.23;;
24721;SDS011;12826;52.368;5.258;2022-09-13T11:05:19;3.28;;;1.27;;
24721;SDS011;12826;52.368;5.258;2022-09-13T11:08:44;1.63;;;0.60;;
24721;SDS011;12826;52.368;5.258;2022-09-13T11:15:32;2.65;;;0.70;;
24721;SDS011;12826;52.368;5.258;2022-09-13T12:05:51;2.78;;;0.60;;
24721;SDS011;12826;52.368;5.258;2022-09-13T12:09:14;4.25;;;0.65;;
24721;SDS011;12826;52.368;5.258;2022-09-13T12:23:16;6.35;;;2.22;;
24721;SDS011;12826;52.368;5.258;2022-09-13T12:29:46;4.70;;;0.68;;
24721;SDS011;12826;52.368;5.258;2022-09-13T12:33:12;4.95;;;0.77;;
24721;SDS011;12826;52.368;5.258;2022-09-13T12:42:55;5.85;;;1.25;;
24721;SDS011;12826;52.368;5.258;2022-09-13T12:49:32;4.88;;;1.00;;
24721;SDS011;12826;52.368;5.258;2022-09-13T12:56:03;2.88;;;0.65;;
24721;SDS011;12826;52.368;5.258;2022-09-13T13:06:48;4.15;;;0.80;;
24721;SDS011;12826;52.368;5.258;2022-09-13T13:19:59;2.78;;;0.90;;
24721;SDS011;12826;52.368;5.258;2022-09-13T13:40:37;3.90;;;0.80;;
24721;SDS011;12826;52.368;5.258;2022-09-13T13:54:00;5.65;;;0.73;;
24721;SDS011;12826;52.368;5.258;2022-09-13T13:57:40;7.93;;;1.50;;
24721;SDS011;12826;52.368;5.258;2022-09-13T14:15:48;4.47;;;0.80;;
24721;SDS011;12826;52.368;5.258;2022-09-13T14:26:13;3.22;;;1.35;;
24721;SDS011;12826;52.368;5.258;2022-09-13T14:33:06;2.20;;;0.50;;
24721;SDS011;12826;52.368;5.258;2022-09-13T14:36:29;4.20;;;0.80;;
24721;SDS011;12826;52.368;5.258;2022-09-13T14:39:29;4.68;;;0.88;;
24721;SDS011;12826;52.368;5.258;2022-09-13T14:49:40;5.97;;;1.25;;
24721;SDS011;12826;52.368;5.258;2022-09-13T14:53:21;4.03;;;0.85;;
24721;SDS011;12826;52.368;5.258;2022-09-13T15:03:47;4.53;;;0.80;;
24721;SDS011;12826;52.368;5.258;2022-09-13T15:07:06;4.30;;;0.73;;
24721;SDS011;12826;52.368;5.258;2022-09-13T15:10:27;5.28;;;1.30;;
24721;SDS011;12826;52.368;5.258;2022-09-13T15:13:31;2.88;;;0.75;;
24721;SDS011;12826;52.368;5.258;2022-09-13T15:16:32;3.30;;;0.80;;
24721;SDS011;12826;52.368;5.258;2022-09-13T15:19:37;3.58;;;0.80;;
24721;SDS011;12826;52.368;5.258;2022-09-13T15:22:47;4.65;;;0.98;;
24721;SDS011;12826;52.368;5.258;2022-09-13T15:28:59;3.85;;;0.90;;
24721;SDS011;12826;52.368;5.258;2022-09-13T15:32:03;4.72;;;1.20;;
24721;SDS011;12826;52.368;5.258;2022-09-13T15:35:14;3.17;;;0.70;;
24721;SDS011;12826;52.368;5.258;2022-09-13T15:38:24;6.03;;;0.57;;
24721;SDS011;12826;52.368;5.258;2022-09-13T15:41:30;4.78;;;0.93;;
24721;SDS011;12826;52.368;5.258;2022-09-13T15:44:34;4.25;;;0.70;;
24721;SDS011;12826;52.368;5.258;2022-09-13T15:47:34;5.82;;;0.73;;
24721;SDS011;12826;52.368;5.258;2022-09-13T15:50:36;3.33;;;0.80;;
24721;SDS011;12826;52.368;5.258;2022-09-13T15:53:38;4.28;;;0.80;;
24721;SDS011;12826;52.368;5.258;2022-09-13T15:56:43;3.92;;;1.20;;
24721;SDS011;12826;52.368;5.258;2022-09-13T15:59:45;2.75;;;0.60;;
24721;SDS011;12826;52.368;5.258;2022-09-13T16:02:46;3.85;;;1.00;;
24721;SDS011;12826;52.368;5.258;2022-09-13T16:05:46;5.75;;;1.10;;
24721;SDS011;12826;52.368;5.258;2022-09-13T16:08:47;4.32;;;1.55;;
24721;SDS011;12826;52.368;5.258;2022-09-13T16:11:47;3.00;;;0.70;;
24721;SDS011;12826;52.368;5.258;2022-09-13T16:14:49;2.42;;;0.60;;
24721;SDS011;12826;52.368;5.258;2022-09-13T16:17:49;4.30;;;0.82;;
24721;SDS011;12826;52.368;5.258;2022-09-13T16:20:49;4.03;;;0.80;;
24721;SDS011;12826;52.368;5.258;2022-09-13T16:23:50;5.40;;;0.93;;
24721;SDS011;12826;52.368;5.258;2022-09-13T16:26:50;5.47;;;0.98;;
24721;SDS011;12826;52.368;5.258;2022-09-13T16:29:51;5.72;;;0.80;;
24721;SDS011;12826;52.368;5.258;2022-09-13T16:32:52;2.70;;;0.70;;
24721;SDS011;12826;52.368;5.258;2022-09-13T16:35:52;5.45;;;0.98;;
24721;SDS011;12826;52.368;5.258;2022-09-13T16:38:53;5.78;;;0.90;;
24721;SDS011;12826;52.368;5.258;2022-09-13T16:41:54;5.00;;;0.90;;
24721;SDS011;12826;52.368;5.258;2022-09-13T16:44:54;5.43;;;0.90;;
24721;SDS011;12826;52.368;5.258;2022-09-13T16:47:55;8.85;;;1.20;;
24721;SDS011;12826;52.368;5.258;2022-09-13T16:51:05;3.83;;;0.88;;
24721;SDS011;12826;52.368;5.258;2022-09-13T16:54:07;7.18;;;1.00;;
24721;SDS011;12826;52.368;5.258;2022-09-13T16:57:09;9.50;;;1.80;;
24721;SDS011;12826;52.368;5.258;2022-09-13T17:00:09;11.88;;;3.15;;
24721;SDS011;12826;52.368;5.258;2022-09-13T17:03:10;4.53;;;1.00;;
24721;SDS011;12826;52.368;5.258;2022-09-13T17:06:12;6.90;;;1.50;;
24721;SDS011;12826;52.368;5.258;2022-09-13T17:09:15;8.30;;;1.10;;
24721;SDS011;12826;52.368;5.258;2022-09-13T17:12:15;6.75;;;1.40;;
24721;SDS011;12826;52.368;5.258;2022-09-13T17:15:19;2.97;;;0.80;;
24721;SDS011;12826;52.368;5.258;2022-09-13T17:18:19;6.90;;;1.10;;
24721;SDS011;12826;52.368;5.258;2022-09-13T17:21:20;8.63;;;0.98;;
24721;SDS011;12826;52.368;5.258;2022-09-13T17:24:20;5.65;;;1.42;;
24721;SDS011;12826;52.368;5.258;2022-09-13T17:27:21;5.13;;;0.90;;
24721;SDS011;12826;52.368;5.258;2022-09-13T17:30:21;7.00;;;1.30;;
24721;SDS011;12826;52.368;5.258;2022-09-13T17:33:21;6.15;;;1.30;;
24721;SDS011;12826;52.368;5.258;2022-09-13T17:36:22;7.00;;;1.00;;
24721;SDS011;12826;52.368;5.258;2022-09-13T17:39:22;6.05;;;0.98;;
24721;SDS011;12826;52.368;5.258;2022-09-13T17:42:33;8.98;;;1.13;;
24721;SDS011;12826;52.368;5.258;2022-09-13T17:48:57;6.75;;;1.25;;
24721;SDS011;12826;52.368;5.258;2022-09-13T17:52:01;7.68;;;1.10;;
24721;SDS011;12826;52.368;5.258;2022-09-13T17:58:15;4.03;;;0.82;;
24721;SDS011;12826;52.368;5.258;2022-09-13T18:04:42;5.57;;;0.90;;
24721;SDS011;12826;52.368;5.258;2022-09-13T18:07:45;5.70;;;1.00;;
24721;SDS011;12826;52.368;5.258;2022-09-13T18:13:52;4.93;;;0.90;;
24721;SDS011;12826;52.368;5.258;2022-09-13T18:16:56;7.90;;;1.20;;
24721;SDS011;12826;52.368;5.258;2022-09-13T18:19:57;6.68;;;1.10;;
24721;SDS011;12826;52.368;5.258;2022-09-13T18:22:57;5.78;;;1.30;;
24721;SDS011;12826;52.368;5.258;2022-09-13T18:26:03;5.15;;;0.88;;
24721;SDS011;12826;52.368;5.258;2022-09-13T18:29:19;2.70;;;0.70;;
24721;SDS011;12826;52.368;5.258;2022-09-13T18:36:10;8.07;;;1.33;;
24721;SDS011;12826;52.368;5.258;2022-09-13T18:57:36;6.30;;;0.98;;
24721;SDS011;12826;52.368;5.258;2022-09-13T19:08:02;9.57;;;1.20;;
24721;SDS011;12826;52.368;5.258;2022-09-13T19:15:54;5.72;;;1.02;;
24721;SDS011;12826;52.368;5.258;2022-09-13T19:27:32;7.03;;;1.20;;
24721;SDS011;12826;52.368;5.258;2022-09-13T19:37:57;5.28;;;1.05;;
24721;SDS011;12826;52.368;5.258;2022-09-13T19:41:05;6.25;;;1.30;;
24721;SDS011;12826;52.368;5.258;2022-09-13T19:44:37;5.68;;;1.05;;
24721;SDS011;12826;52.368;5.258;2022-09-13T19:54:49;4.90;;;1.08;;
24721;SDS011;12826;52.368;5.258;2022-09-13T19:57:58;4.07;;;0.90;;
24721;SDS011;12826;52.368;5.258;2022-09-13T20:04:14;8.88;;;1.35;;
24721;SDS011;12826;52.368;5.258;2022-09-13T20:07:48;8.45;;;1.55;;
24721;SDS011;12826;52.368;5.258;2022-09-13T20:14:06;11.23;;;1.40;;
24721;SDS011;12826;52.368;5.258;2022-09-13T20:20:36;5.30;;;1.23;;
24721;SDS011;12826;52.368;5.258;2022-09-13T20:23:37;3.25;;;0.95;;
24721;SDS011;12826;52.368;5.258;2022-09-13T20:30:20;8.15;;;1.33;;
24721;SDS011;12826;52.368;5.258;2022-09-13T20:33:21;7.50;;;1.23;;
24721;SDS011;12826;52.368;5.258;2022-09-13T20:36:29;6.45;;;1.10;;
24721;SDS011;12826;52.368;5.258;2022-09-13T20:42:42;4.95;;;1.05;;
24721;SDS011;12826;52.368;5.258;2022-09-13T20:45:43;4.90;;;0.95;;
24721;SDS011;12826;52.368;5.258;2022-09-13T20:48:53;4.45;;;1.10;;
24721;SDS011;12826;52.368;5.258;2022-09-13T20:51:57;8.98;;;1.48;;
24721;SDS011;12826;52.368;5.258;2022-09-13T20:55:05;6.80;;;0.97;;
24721;SDS011;12826;52.368;5.258;2022-09-13T20:58:19;4.82;;;1.30;;
24721;SDS011;12826;52.368;5.258;2022-09-13T21:01:27;4.60;;;1.50;;
24721;SDS011;12826;52.368;5.258;2022-09-13T21:04:35;4.10;;;0.98;;
24721;SDS011;12826;52.368;5.258;2022-09-13T21:07:41;6.78;;;1.20;;
24721;SDS011;12826;52.368;5.258;2022-09-13T21:14:07;4.15;;;0.77;;
24721;SDS011;12826;52.368;5.258;2022-09-13T21:17:08;8.00;;;1.38;;
24721;SDS011;12826;52.368;5.258;2022-09-13T21:20:15;5.55;;;1.00;;
24721;SDS011;12826;52.368;5.258;2022-09-13T21:23:15;7.65;;;0.82;;
24721;SDS011;12826;52.368;5.258;2022-09-13T21:26:19;7.28;;;1.00;;
24721;SDS011;12826;52.368;5.258;2022-09-13T21:29:21;5.10;;;1.10;;
24721;SDS011;12826;52.368;5.258;2022-09-13T21:32:23;5.97;;;1.30;;
24721;SDS011;12826;52.368;5.258;2022-09-13T21:35:24;7.95;;;1.48;;
24721;SDS011;12826;52.368;5.258;2022-09-13T21:41:35;8.52;;;0.90;;
24721;SDS011;12826;52.368;5.258;2022-09-13T21:44:36;6.47;;;1.08;;
24721;SDS011;12826;52.368;5.258;2022-09-13T21:50:43;7.20;;;1.42;;
24721;SDS011;12826;52.368;5.258;2022-09-13T21:53:49;4.88;;;1.10;;
24721;SDS011;12826;52.368;5.258;2022-09-13T21:56:57;5.13;;;0.95;;
24721;SDS011;12826;52.368;5.258;2022-09-13T22:00:00;8.50;;;1.50;;
24721;SDS011;12826;52.368;5.258;2022-09-13T22:03:01;5.03;;;1.20;;
24721;SDS011;12826;52.368;5.258;2022-09-13T22:06:02;6.57;;;1.25;;
24721;SDS011;12826;52.368;5.258;2022-09-13T22:09:05;6.82;;;1.52;;
24721;SDS011;12826;52.368;5.258;2022-09-13T22:15:14;2.85;;;0.88;;
24721;SDS011;12826;52.368;5.258;2022-09-13T22:18:18;6.13;;;1.67;;
24721;SDS011;12826;52.368;5.258;2022-09-13T22:24:28;3.78;;;1.02;;
24721;SDS011;12826;52.368;5.258;2022-09-13T22:27:31;4.05;;;0.98;;
24721;SDS011;12826;52.368;5.258;2022-09-13T22:33:45;4.35;;;1.10;;
24721;SDS011;12826;52.368;5.258;2022-09-13T22:36:46;7.75;;;1.20;;
24721;SDS011;12826;52.368;5.258;2022-09-13T22:39:54;4.60;;;1.40;;
24721;SDS011;12826;52.368;5.258;2022-09-13T22:42:56;5.05;;;1.42;;
24721;SDS011;12826;52.368;5.258;2022-09-13T22:46:06;7.03;;;1.60;;
24721;SDS011;12826;52.368;5.258;2022-09-13T22:49:21;2.88;;;1.20;;
24721;SDS011;12826;52.368;5.258;2022-09-13T22:52:22;8.60;;;1.88;;
24721;SDS011;12826;52.368;5.258;2022-09-13T22:58:43;6.72;;;1.40;;
24721;SDS011;12826;52.368;5.258;2022-09-13T23:01:59;4.30;;;1.75;;
24721;SDS011;12826;52.368;5.258;2022-09-13T23:05:04;4.35;;;1.30;;
24721;SDS011;12826;52.368;5.258;2022-09-13T23:08:10;5.15;;;1.48;;
24721;SDS011;12826;52.368;5.258;2022-09-13T23:11:15;3.67;;;1.30;;
24721;SDS011;12826;52.368;5.258;2022-09-13T23:14:22;3.42;;;1.35;;
24721;SDS011;12826;52.368;5.258;2022-09-13T23:17:23;5.32;;;1.40;;
24721;SDS011;12826;52.368;5.258;2022-09-13T23:20:25;5.25;;;1.50;;
24721;SDS011;12826;52.368;5.258;2022-09-13T23:23:26;8.25;;;1.35;;
24721;SDS011;12826;52.368;5.258;2022-09-13T23:26:27;4.40;;;1.20;;
24721;SDS011;12826;52.368;5.258;2022-09-13T23:29:30;6.75;;;1.40;;
24721;SDS011;12826;52.368;5.258;2022-09-13T23:32:31;5.78;;;1.30;;
24721;SDS011;12826;52.368;5.258;2022-09-13T23:35:41;5.03;;;1.60;;
24721;SDS011;12826;52.368;5.258;2022-09-13T23:38:57;5.50;;;1.10;;
24721;SDS011;12826;52.368;5.258;2022-09-13T23:41:58;4.47;;;1.00;;
24721;SDS011;12826;52.368;5.258;2022-09-13T23:48:01;6.28;;;1.23;;
24721;SDS011;12826;52.368;5.258;2022-09-13T23:51:07;5.53;;;1.38;;
24721;SDS011;12826;52.368;5.258;2022-09-13T23:57:14;4.90;;;1.55;;
